aviador You're here:

KPQI Decoded Metar

PRESQUE ISLE in ME, USA
Report Time2018-06-19 05:56:00
UTC Time2018-06-19 06:30:44
Flight Rules vfr VFR
Wind300° at 08 kt
W.Decomp.*RWY 28: 6.1 kt HW 5.1 kt RCW
RWY 01: 5.1 kt HW 6.1 kt LCW
W.Rank300° ranks 17
Current wind is below 300° avg. (8.4)
Visibility9999 m
Phenomena:N/A
Clouds:Broken 100 Hf
Expected CloudBase > 800 ft AGL from Temp-Dew spread
Ceiling10,000 ft
Temp17°C (ISA +3)
Dew Point15°C (88% RH)
AAT15.7°C
QNH999 hPa
Density Alt1,532 ft
Elevation479 ft
Report Wrong Elevation
Raw Report
KPQI 190556Z AUTO 30008KT 10SM BKN100 17/15 A2950 RMK AO2 SLP025
60026 T01720150 10217 20172 53001=

Extra information for KPQI:More info

Metar Taf Metar & Taf Last 4 Metars F.Rules Stats Wind Profile Meteogram Temp Stats Airport Information Weather charts Add Link Nearby VenuesMetar ALERT Operation Metar Decoded Social comments

AIRNAV info for KPQI